Time;durP1;ratioP1;P1;durP2;ratioP2;P2;SDS_P1;SDS_P2;PMS_P1;PMS_P2;Temp;Humidity;BMP_temperature;BMP_pressure;BME280_temperature;BME280_humidity;BME280_pressure;Samples;Min_cycle;Max_cycle;Signal;HPM_P1;HPM_P2
2023/11/22 00:01:03;;;;;;;;;;;;;;;3.83;100.00;102747.06;5110777;28;20039;-35
2023/11/22 00:03:28;;;;;;;13.60;10.25;;;;;;;3.77;100.00;102735.09;5110324;28;19908;-35
2023/11/22 00:05:54;;;;;;;13.52;11.25;;;;;;;3.70;100.00;102736.63;5110260;28;20475;-35
2023/11/22 00:08:19;;;;;;;12.30;11.07;;;;;;;3.57;100.00;102733.38;5101657;28;20024;-35
2023/11/22 00:10:44;;;;;;;12.33;11.13;;;;;;;3.61;100.00;102732.09;5096329;28;20016;-36
2023/11/22 00:13:11;;;;;;;13.57;11.80;;;;;;;3.59;100.00;102731.41;5096283;28;20035;-35
2023/11/22 00:15:36;;;;;;;13.10;11.38;;;;;;;3.57;100.00;102734.22;5097025;28;20028;-35
2023/11/22 00:18:03;;;;;;;13.20;11.23;;;;;;;3.52;100.00;102733.81;5096194;28;20433;-36
2023/11/22 00:20:33;;;;;;;12.55;11.05;;;;;;;3.47;100.00;102725.34;5096436;28;20107;-35
2023/11/22 00:22:58;;;;;;;12.32;10.90;;;;;;;3.46;100.00;102730.81;5096851;28;20024;-36
2023/11/22 00:25:24;;;;;;;12.40;11.20;;;;;;;3.44;100.00;102741.66;5096317;28;20104;-35
2023/11/22 00:27:50;;;;;;;12.93;11.50;;;;;;;3.43;100.00;102731.94;5095955;28;20028;-35
2023/11/22 00:30:15;;;;;;;12.80;11.37;;;;;;;3.42;100.00;102734.78;5097113;28;20020;-36
2023/11/22 00:32:41;;;;;;;16.23;11.43;;;;;;;3.42;100.00;102735.63;5096975;28;20444;-36
2023/11/22 00:35:10;;;;;;;12.88;11.48;;;;;;;3.42;100.00;102737.44;5096968;28;20016;-35
2023/11/22 00:37:35;;;;;;;12.23;10.95;;;;;;;3.42;100.00;102753.50;5095949;28;20024;-35
2023/11/22 00:40:10;;;;;;;14.20;11.47;;;;;;;3.42;100.00;102753.50;5096167;28;20093;-35
2023/11/22 00:42:35;;;;;;;11.55;10.32;;;;;;;3.26;100.00;102730.78;5095965;28;20020;-35
2023/11/22 00:45:01;;;;;;;13.02;11.73;;;;;;;3.41;100.00;102760.66;5096239;28;20024;-35
2023/11/22 00:47:26;;;;;;;11.97;10.77;;;;;;;3.40;100.00;102753.63;5095917;28;20036;-36
2023/11/22 00:49:52;;;;;;;12.10;10.80;;;;;;;3.38;100.00;102757.41;5096315;28;20026;-35
2023/11/22 00:52:17;;;;;;;13.18;11.68;;;;;;;3.37;100.00;102751.22;5096374;28;20028;-35
2023/11/22 00:54:42;;;;;;;13.00;11.57;;;;;;;3.39;100.00;102756.44;5095463;28;20103;-35
2023/11/22 00:57:08;;;;;;;14.33;11.53;;;;;;;3.44;100.00;102752.34;5095719;28;20047;-35
2023/11/22 00:59:33;;;;;;;14.77;12.63;;;;;;;3.38;100.00;102755.59;5095369;28;20016;-36
2023/11/22 01:01:58;;;;;;;12.47;11.17;;;;;;;3.38;100.00;102754.75;5095950;28;20406;-35
2023/11/22 01:04:24;;;;;;;12.47;11.27;;;;;;;3.38;100.00;102763.63;5095811;28;20474;-35
2023/11/22 01:06:49;;;;;;;15.60;11.77;;;;;;;3.33;100.00;102756.00;5095596;28;20024;-35
2023/11/22 01:09:14;;;;;;;12.37;11.17;;;;;;;3.41;100.00;102770.50;5095463;28;20034;-35
2023/11/22 01:11:40;;;;;;;13.40;12.00;;;;;;;3.35;100.00;102771.91;5095456;28;20097;-36
2023/11/22 01:14:05;;;;;;;13.37;10.57;;;;;;;3.37;100.00;102783.31;5095613;28;20028;-35
2023/11/22 01:16:30;;;;;;;12.30;10.83;;;;;;;3.36;100.00;102771.75;5095060;28;20439;-36
2023/11/22 01:18:56;;;;;;;11.00;9.90;;;;;;;3.40;100.00;102785.72;5094658;28;20472;-35
2023/11/22 01:21:21;;;;;;;12.47;11.27;;;;;;;3.42;100.00;102794.47;5095722;28;20031;-35
2023/11/22 01:23:47;;;;;;;12.48;10.45;;;;;;;3.44;100.00;102797.81;5095183;28;20444;-35
2023/11/22 01:26:12;;;;;;;12.60;11.30;;;;;;;3.47;100.00;102797.56;5095501;28;20107;-35
2023/11/22 01:28:40;;;;;;;13.50;11.13;;;;;;;3.43;100.00;102806.00;5095699;28;20052;-35
2023/11/22 01:31:05;;;;;;;12.77;11.23;;;;;;;3.33;100.00;102804.13;5095641;28;20031;-35
2023/11/22 01:33:32;;;;;;;13.53;12.07;;;;;;;3.14;100.00;102805.91;5095598;28;20386;-35
2023/11/22 01:35:57;;;;;;;13.10;11.77;;;;;;;3.24;100.00;102837.03;5094899;28;20020;-35
2023/11/22 01:38:23;;;;;;;12.47;11.13;;;;;;;3.19;100.00;102831.25;5095496;28;20028;-35
2023/11/22 01:40:50;;;;;;;12.85;11.57;;;;;;;3.12;100.00;102816.69;5095180;28;20016;-35
2023/11/22 01:43:20;;;;;;;12.00;10.75;;;;;;;3.02;100.00;102818.47;5095292;28;20097;-35
2023/11/22 01:45:46;;;;;;;13.30;11.43;;;;;;;3.12;100.00;102835.41;5094775;28;20038;-36
2023/11/22 01:48:12;;;;;;;12.33;10.97;;;;;;;3.03;100.00;102844.25;5095258;28;20027;-36
2023/11/22 01:50:39;;;;;;;12.23;11.02;;;;;;;3.08;100.00;102858.06;5094698;28;20036;-35
2023/11/22 01:53:05;;;;;;;13.00;11.20;;;;;;;3.07;100.00;102856.34;5094548;28;20059;-35
2023/11/22 01:55:31;;;;;;;13.15;11.77;;;;;;;3.06;100.00;102855.50;5095070;28;20040;-35
2023/11/22 01:57:56;;;;;;;12.50;11.20;;;;;;;3.05;100.00;102863.66;5094278;28;20450;-35
2023/11/22 02:00:25;;;;;;;11.93;10.73;;;;;;;2.92;100.00;102825.59;5094203;28;20107;-35
2023/11/22 02:02:50;;;;;;;12.23;10.20;;;;;;;3.08;100.00;102858.91;5094108;28;20528;-35
2023/11/22 02:05:15;;;;;;;10.10;9.18;;;;;;;3.14;100.00;102854.84;5095004;28;20107;-35
2023/11/22 02:07:41;;;;;;;10.37;9.30;;;;;;;2.98;100.00;102844.66;5094349;28;20020;-35
2023/11/22 02:10:07;;;;;;;11.70;10.50;;;;;;;2.90;100.00;102828.41;5094650;28;20123;-35
2023/11/22 02:12:33;;;;;;;11.68;10.07;;;;;;;2.93;100.00;102835.31;5094842;28;20020;-35
2023/11/22 02:14:58;;;;;;;11.73;10.10;;;;;;;2.76;100.00;102816.25;5094825;28;20020;-35
2023/11/22 02:17:24;;;;;;;9.32;8.43;;;;;;;2.82;100.00;102823.72;5094961;28;20024;-35
2023/11/22 02:19:49;;;;;;;12.20;10.90;;;;;;;2.81;100.00;102830.06;5094154;28;20352;-35
2023/11/22 02:22:15;;;;;;;11.63;10.43;;;;;;;2.76;100.00;102813.56;5094456;28;20024;-35
2023/11/22 02:24:40;;;;;;;13.07;10.68;;;;;;;2.74;100.00;102836.91;5094296;28;20486;-35
2023/11/22 02:27:06;;;;;;;10.20;9.20;;;;;;;2.86;100.00;102845.69;5094157;28;20481;-35
2023/11/22 02:29:31;;;;;;;11.32;10.18;;;;;;;2.75;100.00;102841.28;5092789;28;20425;-35
2023/11/22 02:31:57;;;;;;;10.60;9.50;;;;;;;2.82;100.00;102857.63;5093818;28;20035;-35
2023/11/22 02:34:22;;;;;;;12.07;10.75;;;;;;;2.71;100.00;102850.50;5093892;28;20285;-35
2023/11/22 02:36:48;;;;;;;11.17;9.60;;;;;;;2.78;100.00;102851.72;5094181;28;20352;-35
2023/11/22 02:39:14;;;;;;;11.23;10.10;;;;;;;2.68;100.00;102850.75;5093831;28;20038;-35
2023/11/22 02:41:39;;;;;;;9.93;8.93;;;;;;;2.67;100.00;102854.41;5093907;28;20042;-35
2023/11/22 02:44:06;;;;;;;10.53;9.43;;;;;;;2.71;100.00;102855.88;5093813;28;20023;-36
2023/11/22 02:46:32;;;;;;;10.90;9.80;;;;;;;2.58;100.00;102855.19;5094333;28;20262;-35
2023/11/22 02:48:59;;;;;;;10.50;9.50;;;;;;;2.57;100.00;102848.16;5093754;28;20030;-35
2023/11/22 02:51:24;;;;;;;;;;;;;;;2.66;100.00;102835.88;5094757;28;20099;-36
2023/11/22 02:53:49;;;;;;;9.80;8.70;;;;;;;2.49;100.00;102846.16;5094254;28;20350;-35
2023/11/22 02:56:15;;;;;;;9.35;8.32;;;;;;;2.46;100.00;102838.41;5093835;28;20048;-36
2023/11/22 02:58:41;;;;;;;9.55;8.35;;;;;;;2.41;100.00;102839.75;5093626;28;20024;-35
2023/11/22 03:01:07;;;;;;;10.90;9.80;;;;;;;2.37;100.00;102833.81;5094134;28;20031;-35
2023/11/22 03:03:32;;;;;;;;;;;;;;;2.47;100.00;102842.75;5093644;28;20468;-35
2023/11/22 03:05:58;;;;;;;9.45;8.40;;;;;;;2.35;100.00;102842.94;5093835;28;19954;-36
2023/11/22 03:08:23;;;;;;;11.97;10.33;;;;;;;2.32;100.00;102844.88;5094105;28;20020;-35
2023/11/22 03:10:50;;;;;;;11.60;10.40;;;;;;;2.29;100.00;102834.47;5093616;28;20056;-36
2023/11/22 03:13:16;;;;;;;11.82;10.63;;;;;;;2.25;100.00;102841.03;5093425;28;20020;-35
2023/11/22 03:15:42;;;;;;;11.73;10.55;;;;;;;2.26;100.00;102856.09;5093703;28;20024;-35
2023/11/22 03:18:07;;;;;;;10.75;9.68;;;;;;;2.22;100.00;102849.31;5093760;28;20400;-38
2023/11/22 03:20:33;;;;;;;9.77;8.77;;;;;;;2.29;100.00;102850.50;5093521;28;20063;-35
2023/11/22 03:22:59;;;;;;;10.30;9.23;;;;;;;2.18;100.00;102850.53;5093135;28;20480;-35
2023/11/22 03:25:25;;;;;;;10.65;9.55;;;;;;;2.12;100.00;102851.03;5093453;28;20020;-35
2023/11/22 03:27:51;;;;;;;9.80;8.82;;;;;;;2.06;100.00;102857.72;5093423;28;20070;-35
2023/11/22 03:30:17;;;;;;;11.02;9.90;;;;;;;2.11;100.00;102861.84;5093400;28;20095;-35
2023/11/22 03:32:43;;;;;;;11.52;10.32;;;;;;;2.11;100.00;102864.53;5093108;28;20036;-35
2023/11/22 03:35:10;;;;;;;10.38;9.23;;;;;;;2.12;100.00;102867.06;5093331;28;20364;-35
2023/11/22 03:37:35;;;;;;;11.30;8.73;;;;;;;2.12;100.00;102875.06;5093170;28;20115;-35
2023/11/22 03:40:02;;;;;;;10.40;9.33;;;;;;;2.13;100.00;102876.75;5093330;28;20100;-35
2023/11/22 03:42:27;;;;;;;11.27;10.07;;;;;;;2.07;100.00;102885.25;5094152;28;20408;-35
2023/11/22 03:44:53;;;;;;;11.60;9.70;;;;;;;2.09;100.00;102882.47;5097384;28;20091;-35
2023/11/22 03:47:18;;;;;;;12.93;9.57;;;;;;;2.09;100.00;102896.66;5096757;28;20046;-35
2023/11/22 03:49:44;;;;;;;9.53;8.47;;;;;;;2.10;100.00;102905.50;5097031;28;20016;-35
2023/11/22 03:52:14;;;;;;;11.27;9.83;;;;;;;1.99;100.00;102901.88;5096741;28;20016;-35
2023/11/22 03:54:39;;;;;;;10.63;9.52;;;;;;;2.01;100.00;102928.47;5097145;28;20107;-35
2023/11/22 03:57:05;;;;;;;10.35;9.20;;;;;;;2.05;100.00;102924.59;5097207;28;20119;-35
2023/11/22 03:59:30;;;;;;;9.87;8.87;;;;;;;2.04;100.00;102928.19;5096828;28;20020;-35
2023/11/22 04:01:56;;;;;;;10.57;9.43;;;;;;;1.96;100.00;102922.66;5097617;28;20285;-36
2023/11/22 04:04:22;;;;;;;9.02;8.15;;;;;;;1.94;100.00;102935.25;5096708;28;20024;-35
2023/11/22 04:06:47;;;;;;;11.40;8.70;;;;;;;1.87;100.00;102926.91;5096907;28;20024;-35
2023/11/22 04:09:13;;;;;;;10.27;9.07;;;;;;;1.87;100.00;102940.25;5096712;28;20452;-35
2023/11/22 04:11:39;;;;;;;12.00;10.67;;;;;;;1.79;100.00;102926.66;5096688;28;20157;-35
2023/11/22 04:14:04;;;;;;;10.57;9.45;;;;;;;1.80;100.00;102939.03;5097071;28;20602;-35
2023/11/22 04:16:29;;;;;;;9.95;8.55;;;;;;;1.84;100.00;102955.63;5096475;28;20057;-35
2023/11/22 04:18:55;;;;;;;8.83;7.93;;;;;;;1.78;100.00;102940.97;5096513;28;20444;-35
2023/11/22 04:21:20;;;;;;;10.67;8.93;;;;;;;1.78;100.00;102962.31;5097015;28;20449;-35
2023/11/22 04:23:45;;;;;;;10.90;9.10;;;;;;;1.72;100.00;102966.31;5096081;28;20032;-35
2023/11/22 04:26:11;;;;;;;9.90;8.90;;;;;;;1.72;100.00;102960.16;5097120;28;20042;-35
2023/11/22 04:28:36;;;;;;;11.17;8.67;;;;;;;1.65;100.00;102953.59;5096620;28;20046;-35
2023/11/22 04:31:02;;;;;;;10.70;8.60;;;;;;;1.61;100.00;102963.66;5096887;28;20444;-35
2023/11/22 04:33:29;;;;;;;9.03;8.13;;;;;;;1.58;100.00;102966.56;5096211;28;20528;-35
2023/11/22 04:35:56;;;;;;;9.50;8.50;;;;;;;1.55;100.00;102956.13;5095789;28;20308;-35
2023/11/22 04:38:21;;;;;;;9.68;8.68;;;;;;;1.50;100.00;102966.31;5095804;28;20031;-35
2023/11/22 04:40:47;;;;;;;10.45;9.35;;;;;;;1.52;100.00;102967.03;5095792;28;20027;-35
2023/11/22 04:43:13;;;;;;;9.85;8.80;;;;;;;1.54;100.00;102965.09;5096016;28;20048;-35
2023/11/22 04:45:38;;;;;;;9.68;8.68;;;;;;;1.51;100.00;102971.53;5095917;28;20054;-35
2023/11/22 04:48:04;;;;;;;9.38;8.38;;;;;;;1.51;100.00;102965.31;5096180;28;20069;-35
2023/11/22 04:50:30;;;;;;;11.43;8.23;;;;;;;1.52;100.00;102962.56;5095943;28;20024;-35
2023/11/22 04:52:55;;;;;;;9.32;8.32;;;;;;;1.52;100.00;102964.38;5096099;28;20062;-35
2023/11/22 04:55:23;;;;;;;10.70;8.48;;;;;;;1.54;100.00;102970.44;5096208;28;20070;-35
2023/11/22 04:57:48;;;;;;;9.93;8.63;;;;;;;1.57;100.00;102974.69;5095577;28;20043;-35
2023/11/22 05:00:14;;;;;;;9.32;8.40;;;;;;;1.56;100.00;102973.81;5095970;28;20448;-35
2023/11/22 05:02:39;;;;;;;8.55;7.75;;;;;;;1.52;100.00;102962.56;5095311;28;20020;-35
2023/11/22 05:05:06;;;;;;;8.27;7.47;;;;;;;1.59;100.00;102962.91;5096344;28;20047;-35
2023/11/22 05:07:31;;;;;;;9.10;8.00;;;;;;;1.58;100.00;102966.56;5095432;28;20064;-35
2023/11/22 05:09:57;;;;;;;9.13;8.00;;;;;;;1.52;100.00;102961.72;5095245;28;20116;-35
2023/11/22 05:12:22;;;;;;;9.23;8.33;;;;;;;1.50;100.00;102969.81;5096008;28;20019;-35
2023/11/22 05:14:48;;;;;;;9.45;8.52;;;;;;;1.44;100.00;102972.13;5095057;28;20180;-35
2023/11/22 05:17:13;;;;;;;9.93;8.43;;;;;;;1.44;100.00;102977.44;5095074;28;20031;-35
2023/11/22 05:19:39;;;;;;;9.20;8.30;;;;;;;1.47;100.00;102982.56;5094041;28;20278;-35
2023/11/22 05:22:05;;;;;;;9.00;8.10;;;;;;;1.40;100.00;102979.50;5094450;28;20055;-35
2023/11/22 05:24:30;;;;;;;8.48;7.68;;;;;;;1.46;100.00;102976.34;5095085;28;20019;-35
2023/11/22 05:26:55;;;;;;;9.03;8.13;;;;;;;1.42;100.00;102979.41;5095265;28;20379;-35
2023/11/22 05:29:21;;;;;;;12.63;8.73;;;;;;;1.41;100.00;102964.34;5094838;28;20270;-35
2023/11/22 05:31:47;;;;;;;10.02;9.02;;;;;;;1.43;100.00;102970.44;5095630;28;20103;-35
2023/11/22 05:34:13;;;;;;;9.52;8.52;;;;;;;1.46;100.00;102980.84;5095042;28;20030;-35
2023/11/22 05:36:38;;;;;;;9.68;8.68;;;;;;;1.46;100.00;102970.16;5095167;28;20023;-35
2023/11/22 05:39:03;;;;;;;9.43;8.43;;;;;;;1.46;100.00;102968.34;5093936;28;20483;-35
2023/11/22 05:41:29;;;;;;;8.77;7.87;;;;;;;1.47;100.00;102966.56;5095455;28;20036;-35
2023/11/22 05:43:54;;;;;;;8.80;7.90;;;;;;;1.56;100.00;102963.16;5094781;28;20084;-35
2023/11/22 05:46:24;;;;;;;9.47;8.47;;;;;;;1.47;100.00;102961.22;5095058;28;20032;-35
2023/11/22 05:48:50;;;;;;;10.45;9.40;;;;;;;1.50;100.00;102983.16;5094589;28;20031;-35
2023/11/22 05:51:16;;;;;;;8.05;7.25;;;;;;;1.59;100.00;102956.75;5095251;28;20020;-35
2023/11/22 05:53:42;;;;;;;10.23;9.05;;;;;;;1.60;100.00;102985.94;5094951;28;20079;-35
2023/11/22 05:56:08;;;;;;;11.40;9.80;;;;;;;1.60;100.00;102996.59;5094464;28;20055;-35
2023/11/22 05:58:38;;;;;;;10.40;8.75;;;;;;;1.65;100.00;102994.44;5094486;28;20028;-35
2023/11/22 06:01:04;;;;;;;8.57;7.70;;;;;;;1.73;100.00;103000.03;5094751;28;20024;-35
2023/11/22 06:03:29;;;;;;;9.45;8.55;;;;;;;1.64;100.00;102995.41;5095169;28;20336;-35
2023/11/22 06:05:57;;;;;;;10.83;8.60;;;;;;;1.69;100.00;103001.22;5093934;28;20115;-35
2023/11/22 06:08:22;;;;;;;9.73;8.70;;;;;;;1.75;100.00;102989.22;5094293;28;20456;-35
2023/11/22 06:10:48;;;;;;;9.82;7.57;;;;;;;1.88;100.00;102994.44;5094320;28;20027;-35
2023/11/22 06:13:13;;;;;;;10.70;9.33;;;;;;;1.85;100.00;102989.34;5094284;28;20089;-35
2023/11/22 06:15:39;;;;;;;10.70;8.20;;;;;;;1.94;100.00;103010.81;5094783;28;20121;-35
2023/11/22 06:18:04;;;;;;;9.97;8.70;;;;;;;1.98;100.00;103003.41;5094220;28;20028;-35
2023/11/22 06:20:30;;;;;;;10.20;9.13;;;;;;;2.08;100.00;103012.38;5094793;28;20027;-35
2023/11/22 06:22:55;;;;;;;11.27;8.82;;;;;;;2.09;100.00;103015.91;5094141;28;20069;-35
2023/11/22 06:25:20;;;;;;;10.00;8.97;;;;;;;2.10;100.00;103021.16;5094124;28;20024;-35
2023/11/22 06:27:46;;;;;;;9.83;8.43;;;;;;;2.14;100.00;103009.22;5094106;28;20084;-35
2023/11/22 06:30:11;;;;;;;9.60;8.60;;;;;;;2.05;100.00;103010.84;5094098;28;20027;-35
2023/11/22 06:32:37;;;;;;;10.43;9.33;;;;;;;2.04;100.00;103005.59;5094396;28;20023;-35
2023/11/22 06:35:03;;;;;;;10.00;8.98;;;;;;;2.05;100.00;103000.16;5094760;28;20333;-35
2023/11/22 06:37:28;;;;;;;9.80;8.80;;;;;;;2.11;100.00;103019.31;5093859;28;20020;-35
2023/11/22 06:39:54;;;;;;;9.93;8.52;;;;;;;2.09;100.00;103027.44;5093868;28;20030;-35
2023/11/22 06:42:22;;;;;;;9.77;8.65;;;;;;;2.12;100.00;103037.88;5093513;28;20115;-35
2023/11/22 06:44:52;;;;;;;9.27;8.27;;;;;;;2.09;100.00;103047.94;5094086;28;20364;-35
2023/11/22 06:47:18;;;;;;;11.30;9.27;;;;;;;2.07;100.00;103042.72;5093821;28;20093;-35
2023/11/22 06:49:43;;;;;;;10.23;9.00;;;;;;;2.13;100.00;103047.56;5093766;28;20028;-35
2023/11/22 06:52:09;;;;;;;9.93;8.33;;;;;;;2.15;100.00;103047.44;5094358;28;20043;-35
2023/11/22 06:54:36;;;;;;;11.63;9.57;;;;;;;2.09;100.00;103027.44;5094539;28;20048;-35
2023/11/22 06:57:02;;;;;;;10.07;8.90;;;;;;;2.28;100.00;103021.47;5094008;28;20380;-35
2023/11/22 06:59:28;;;;;;;13.60;10.38;;;;;;;2.17;100.00;103010.81;5093658;28;20036;-35
2023/11/22 07:01:53;;;;;;;10.80;9.70;;;;;;;2.20;100.00;103005.25;5094004;28;20107;-35
2023/11/22 07:04:18;;;;;;;12.57;10.97;;;;;;;2.16;100.00;103014.47;5093722;28;20265;-35
2023/11/22 07:06:44;;;;;;;13.33;11.33;;;;;;;2.16;100.00;103015.31;5093350;28;20016;-35
2023/11/22 07:09:10;;;;;;;13.03;11.63;;;;;;;2.05;100.00;103001.97;5093597;28;20077;-35
2023/11/22 07:11:36;;;;;;;16.38;12.73;;;;;;;2.11;100.00;103003.31;5093336;28;20456;-35
2023/11/22 07:14:03;;;;;;;16.70;12.00;;;;;;;2.20;100.00;103005.25;5093499;28;20024;-35
2023/11/22 07:16:29;;;;;;;14.85;12.80;;;;;;;2.20;100.00;103010.59;5094320;28;20081;-35
2023/11/22 07:18:54;;;;;;;18.02;14.38;;;;;;;2.11;100.00;103006.81;5096333;28;20020;-35
2023/11/22 07:21:20;;;;;;;18.40;14.53;;;;;;;2.20;100.00;103015.91;5097345;28;20024;-35
2023/11/22 07:23:46;;;;;;;20.83;13.23;;;;;;;2.19;100.00;103008.84;5097550;28;20020;-35
2023/11/22 07:26:14;;;;;;;;;;;;;;;2.27;100.00;103023.28;5097981;28;20024;-35
2023/11/22 07:28:39;;;;;;;28.08;13.32;;;;;;;2.17;100.00;103021.50;5097761;28;19907;-35
2023/11/22 07:31:07;;;;;;;28.52;14.05;;;;;;;2.14;100.00;103021.72;5097587;28;20024;-35
2023/11/22 07:33:33;;;;;;;23.75;12.65;;;;;;;2.20;100.00;103019.44;5097345;28;20024;-35
2023/11/22 07:35:58;;;;;;;22.60;13.80;;;;;;;2.22;100.00;103025.50;5097875;28;20111;-35
2023/11/22 07:38:24;;;;;;;28.92;13.93;;;;;;;2.19;100.00;103027.53;5097245;28;20469;-35
2023/11/22 07:40:50;;;;;;;18.73;12.30;;;;;;;2.28;100.00;103025.00;5097269;28;20043;-35
2023/11/22 07:43:16;;;;;;;24.75;12.95;;;;;;;2.23;100.00;103031.66;5097462;28;20067;-35
2023/11/22 07:45:43;;;;;;;33.80;13.35;;;;;;;2.20;100.00;103021.25;5097704;28;20031;-35
2023/11/22 07:48:11;;;;;;;30.45;13.48;;;;;;;2.26;100.00;103031.44;5097617;28;20356;-36
2023/11/22 07:50:37;;;;;;;22.25;12.20;;;;;;;2.26;100.00;103032.28;5097075;28;20024;-35
2023/11/22 07:53:04;;;;;;;27.92;13.55;;;;;;;2.22;100.00;103036.16;5096965;28;20024;-35
2023/11/22 07:55:30;;;;;;;22.65;12.80;;;;;;;2.25;100.00;103033.25;5097519;28;20024;-35
2023/11/22 07:57:55;;;;;;;24.52;12.75;;;;;;;2.31;100.00;103047.94;5097590;28;20051;-35
2023/11/22 08:00:22;;;;;;;32.72;12.98;;;;;;;2.27;100.00;103047.31;5096908;28;20028;-35
2023/11/22 08:02:49;;;;;;;33.22;13.23;;;;;;;2.26;100.00;103048.31;5096840;28;20031;-35
2023/11/22 08:05:15;;;;;;;33.03;13.38;;;;;;;2.33;100.00;103059.34;5096761;28;20059;-35
2023/11/22 08:07:41;;;;;;;35.38;13.70;;;;;;;2.38;100.00;103073.16;5096982;28;20020;-35
2023/11/22 08:10:18;;;;;;;42.08;12.63;;;;;;;2.41;100.00;103069.41;5096964;28;20432;-35
2023/11/22 08:12:49;;;;;;;31.35;13.55;;;;;;;2.41;100.00;103074.75;5097180;28;20020;-35
2023/11/22 08:15:15;;;;;;;28.90;13.98;;;;;;;2.22;100.00;103049.50;5096552;28;20016;-35
2023/11/22 08:17:41;;;;;;;;;;;;;;;2.53;100.00;103076.41;5096894;28;20024;-35
2023/11/22 08:20:11;;;;;;;34.83;13.10;;;;;;;2.37;100.00;103067.94;5096522;28;19915;-35
2023/11/22 08:22:38;;;;;;;31.70;12.60;;;;;;;2.45;100.00;103077.06;5097019;28;20402;-35
2023/11/22 08:25:04;;;;;;;22.35;12.80;;;;;;;2.49;100.00;103080.31;5096360;28;20020;-36
2023/11/22 08:27:31;;;;;;;18.45;11.35;;;;;;;2.44;100.00;103082.50;5096334;28;20012;-35
2023/11/22 08:29:56;;;;;;;15.88;11.32;;;;;;;2.35;100.00;103060.06;5095530;28;20050;-35
2023/11/22 08:32:23;;;;;;;13.60;11.33;;;;;;;2.39;100.00;103080.22;5096292;28;20024;-35
2023/11/22 08:34:52;;;;;;;12.75;10.50;;;;;;;2.47;100.00;103082.25;5096206;28;20357;-35
2023/11/22 08:37:18;;;;;;;14.65;10.90;;;;;;;2.37;100.00;103068.78;5096121;28;20031;-35
2023/11/22 08:39:43;;;;;;;15.05;11.90;;;;;;;2.39;100.00;103074.00;5096067;28;20020;-35
2023/11/22 08:42:09;;;;;;;14.27;11.27;;;;;;;2.44;100.00;103093.19;5096163;28;20104;-35
2023/11/22 08:44:38;;;;;;;15.20;11.65;;;;;;;2.30;100.00;103080.97;5096027;28;20024;-35
2023/11/22 08:47:04;;;;;;;13.93;11.57;;;;;;;2.49;100.00;103110.56;5096258;28;20032;-35
2023/11/22 08:49:29;;;;;;;14.90;11.65;;;;;;;2.51;100.00;103118.44;5095902;28;20058;-35
2023/11/22 08:51:56;;;;;;;20.35;12.30;;;;;;;2.49;100.00;103117.69;5096295;28;20016;-35
2023/11/22 08:54:21;;;;;;;14.10;11.50;;;;;;;2.53;100.00;103113.81;5095561;28;20043;-35
2023/11/22 08:56:47;;;;;;;16.10;12.23;;;;;;;2.56;100.00;103113.56;5095896;28;20468;-35
2023/11/22 08:59:13;;;;;;;17.67;14.00;;;;;;;2.54;100.00;103105.69;5096384;28;20038;-35
2023/11/22 09:01:38;;;;;;;17.92;12.38;;;;;;;2.60;100.00;103099.00;5095794;28;20341;-35
2023/11/22 09:04:04;;;;;;;13.80;12.40;;;;;;;2.66;100.00;103101.19;5095632;28;20020;-35
2023/11/22 09:06:30;;;;;;;20.23;14.98;;;;;;;2.63;100.00;103108.59;5095903;28;20155;-35
2023/11/22 09:08:56;;;;;;;20.80;14.90;;;;;;;2.65;100.00;103102.16;5095510;28;20057;-35
2023/11/22 09:11:22;;;;;;;;;;;;;;;2.71;100.00;103106.16;5096539;28;20337;-35
2023/11/22 09:13:49;;;;;;;25.58;16.08;;;;;;;2.60;100.00;103106.19;5095143;28;19911;-35
2023/11/22 09:16:16;;;;;;;26.83;15.95;;;;;;;2.57;100.00;103099.25;5095632;28;20062;-35
2023/11/22 09:18:42;;;;;;;28.88;18.30;;;;;;;2.65;100.00;103112.84;5095319;28;20084;-35
2023/11/22 09:21:09;;;;;;;20.73;16.83;;;;;;;2.76;100.00;103114.63;5095340;28;20509;-35
2023/11/22 09:23:35;;;;;;;30.20;19.45;;;;;;;2.73;100.00;103118.44;5095191;28;20034;-35
2023/11/22 09:26:02;;;;;;;29.67;21.40;;;;;;;2.67;100.00;103110.03;5095479;28;20023;-35
2023/11/22 09:28:28;;;;;;;36.30;22.38;;;;;;;2.73;100.00;103129.13;5095152;28;20024;-35
2023/11/22 09:30:53;;;;;;;30.90;21.48;;;;;;;2.83;100.00;103114.03;5094793;28;20376;-35
2023/11/22 09:33:18;;;;;;;32.57;22.83;;;;;;;2.81;100.00;103113.28;5094777;28;20059;-35
2023/11/22 09:35:46;;;;;;;28.80;20.43;;;;;;;2.92;100.00;103109.72;5095787;28;20055;-35
2023/11/22 09:38:12;;;;;;;31.33;21.38;;;;;;;2.91;100.00;103109.88;5095147;28;20436;-35
2023/11/22 09:40:46;;;;;;;32.22;22.63;;;;;;;2.96;100.00;103121.88;5094656;28;20094;-35
2023/11/22 09:43:15;;;;;;;35.58;24.02;;;;;;;2.93;100.00;103113.25;5094754;28;20032;-35
2023/11/22 09:45:40;;;;;;;33.92;24.52;;;;;;;3.02;100.00;103131.22;5095029;28;20111;-35
2023/11/22 09:48:20;;;;;;;34.67;24.58;;;;;;;3.10;100.00;103137.63;5094537;28;20066;-35
2023/11/22 09:51:24;;;;;;;36.83;25.38;;;;;;;3.18;100.00;103130.84;5094739;28;20017;-35
2023/11/22 09:53:56;;;;;;;36.55;24.10;;;;;;;3.07;100.00;103113.84;5073199;28;20424;-35
2023/11/22 09:56:23;;;;;;;35.03;22.80;;;;;;;3.18;100.00;103115.63;5095257;28;20074;-35
2023/11/22 09:58:54;;;;;;;33.85;23.23;;;;;;;3.31;100.00;103120.78;5094584;28;20107;-35
2023/11/22 10:01:20;;;;;;;36.38;24.92;;;;;;;3.34;100.00;103115.19;5095324;28;20024;-35
2023/11/22 10:03:46;;;;;;;;;;;;;;;3.43;100.00;103117.09;5094601;28;20464;-35
2023/11/22 10:06:11;;;;;;;37.33;25.60;;;;;;;3.39;100.00;103112.16;5094139;28;19969;-35
2023/11/22 10:08:38;;;;;;;36.57;25.53;;;;;;;3.38;100.00;103113.13;5094101;28;20051;-35
2023/11/22 10:11:04;;;;;;;33.53;23.83;;;;;;;3.45;100.00;103119.66;5095150;28;20024;-35
2023/11/22 10:13:29;;;;;;;31.95;22.08;;;;;;;3.50;100.00;103118.28;5093982;28;20093;-35
2023/11/22 10:15:55;;;;;;;31.63;22.67;;;;;;;3.30;100.00;103087.84;5093876;28;20024;-35
2023/11/22 10:18:21;;;;;;;31.17;22.33;;;;;;;3.52;100.00;103115.50;5093877;28;20422;-35
2023/11/22 10:20:50;;;;;;;28.55;21.48;;;;;;;3.54;100.00;103109.03;5094175;28;20027;-35
2023/11/22 10:23:24;;;;;;;26.73;20.63;;;;;;;3.63;100.00;103118.09;5094171;28;20024;-35
2023/11/22 10:25:52;;;;;;;31.45;22.20;;;;;;;3.73;100.00;103113.66;5094322;28;20031;-35
2023/11/22 10:28:23;;;;;;;28.13;21.42;;;;;;;3.74;100.00;103115.34;5093992;28;20020;-35
2023/11/22 10:30:51;;;;;;;27.30;20.70;;;;;;;3.82;100.00;103118.25;5094325;28;20027;-35
2023/11/22 10:33:17;;;;;;;26.48;21.15;;;;;;;3.83;100.00;103100.34;5094229;28;20028;-35
2023/11/22 10:35:48;;;;;;;24.30;19.20;;;;;;;3.93;100.00;103108.44;5094454;28;20440;-35
2023/11/22 10:38:15;;;;;;;28.15;21.15;;;;;;;3.93;100.00;103111.13;5093818;28;20107;-35
2023/11/22 10:40:41;;;;;;;25.90;20.77;;;;;;;3.94;100.00;103107.44;5093847;28;20065;-35
2023/11/22 10:43:08;;;;;;;26.05;19.67;;;;;;;3.97;100.00;103097.34;5093828;28;20027;-35
2023/11/22 10:45:33;;;;;;;28.90;21.05;;;;;;;3.98;100.00;103093.66;5094354;28;20020;-35
2023/11/22 10:48:00;;;;;;;27.90;20.95;;;;;;;4.02;100.00;103094.25;5094267;28;20031;-35
2023/11/22 10:50:28;;;;;;;27.67;20.48;;;;;;;4.03;100.00;103095.94;5093469;28;20035;-35
2023/11/22 10:52:56;;;;;;;27.08;19.98;;;;;;;3.93;100.00;103052.22;5094078;28;20076;-35
2023/11/22 10:55:26;;;;;;;27.15;20.85;;;;;;;4.16;100.00;103075.16;5093609;28;20066;-36
2023/11/22 10:57:55;;;;;;;26.88;21.35;;;;;;;4.20;100.00;103067.69;5093715;28;20073;-35
2023/11/22 11:00:22;;;;;;;27.60;20.52;;;;;;;4.23;100.00;103062.06;5093694;28;20026;-35
2023/11/22 11:02:59;;;;;;;27.88;20.80;;;;;;;4.23;100.00;103057.56;5093619;28;20032;-35
2023/11/22 11:05:31;;;;;;;27.33;21.45;;;;;;;4.30;100.00;103056.06;5093662;28;20016;-35
2023/11/22 11:08:10;;;;;;;29.50;21.83;;;;;;;4.31;100.00;103036.31;5093586;28;20483;-35
2023/11/22 11:10:40;;;;;;;28.10;20.33;;;;;;;4.33;100.00;103045.03;5093890;28;20127;-35
2023/11/22 11:13:06;;;;;;;29.00;22.00;;;;;;;4.47;100.00;103057.22;5093227;28;20023;-35